sensor_id;sensor_type;location;lat;lon;timestamp;pressure;altitude;pressure_sealevel;temperature;humidity
26711;BME280;18311;52.754;18.118;2022-12-24T00:02:19;99582.23;;;8.38;100.00
26711;BME280;18311;52.754;18.118;2022-12-24T00:04:50;99578.64;;;8.39;100.00
26711;BME280;18311;52.754;18.118;2022-12-24T00:07:24;99574.05;;;8.43;100.00
26711;BME280;18311;52.754;18.118;2022-12-24T00:09:54;99578.98;;;8.50;100.00
26711;BME280;18311;52.754;18.118;2022-12-24T00:12:26;99561.95;;;8.36;100.00
26711;BME280;18311;52.754;18.118;2022-12-24T00:14:57;99577.86;;;8.37;100.00
26711;BME280;18311;52.754;18.118;2022-12-24T00:17:27;99587.70;;;8.35;100.00
26711;BME280;18311;52.754;18.118;2022-12-24T00:20:00;99581.48;;;8.17;100.00
26711;BME280;18311;52.754;18.118;2022-12-24T00:22:32;99569.87;;;8.01;100.00
26711;BME280;18311;52.754;18.118;2022-12-24T00:25:03;99563.77;;;7.99;100.00
26711;BME280;18311;52.754;18.118;2022-12-24T00:27:35;99563.77;;;7.99;100.00
26711;BME280;18311;52.754;18.118;2022-12-24T00:30:07;99584.81;;;8.03;100.00
26711;BME280;18311;52.754;18.118;2022-12-24T00:32:39;99586.48;;;8.06;100.00
26711;BME280;18311;52.754;18.118;2022-12-24T00:35:10;99584.39;;;8.12;100.00
26711;BME280;18311;52.754;18.118;2022-12-24T00:37:40;99585.95;;;8.17;100.00
26711;BME280;18311;52.754;18.118;2022-12-24T00:40:12;99585.25;;;8.13;100.00
26711;BME280;18311;52.754;18.118;2022-12-24T00:42:43;99585.11;;;8.16;100.00
26711;BME280;18311;52.754;18.118;2022-12-24T00:45:14;99584.61;;;8.08;100.00
26711;BME280;18311;52.754;18.118;2022-12-24T00:47:46;99588.91;;;8.10;100.00
26711;BME280;18311;52.754;18.118;2022-12-24T00:50:17;99597.06;;;8.07;100.00
26711;BME280;18311;52.754;18.118;2022-12-24T00:52:49;99594.16;;;8.12;100.00
26711;BME280;18311;52.754;18.118;2022-12-24T00:55:21;99594.16;;;8.12;100.00
26711;BME280;18311;52.754;18.118;2022-12-24T00:57:53;99600.44;;;8.11;100.00
26711;BME280;18311;52.754;18.118;2022-12-24T01:00:23;99597.34;;;8.01;100.00
26711;BME280;18311;52.754;18.118;2022-12-24T01:02:54;99596.35;;;8.04;100.00
26711;BME280;18311;52.754;18.118;2022-12-24T01:05:25;99596.25;;;8.05;100.00
26711;BME280;18311;52.754;18.118;2022-12-24T01:07:55;99600.08;;;8.00;100.00
26711;BME280;18311;52.754;18.118;2022-12-24T01:10:26;99594.18;;;7.93;100.00
26711;BME280;18311;52.754;18.118;2022-12-24T01:13:02;99595.13;;;7.92;100.00
26711;BME280;18311;52.754;18.118;2022-12-24T01:15:35;99602.02;;;7.96;100.00
26711;BME280;18311;52.754;18.118;2022-12-24T01:18:06;99596.63;;;7.98;100.00
26711;BME280;18311;52.754;18.118;2022-12-24T01:20:37;99596.70;;;7.96;100.00
26711;BME280;18311;52.754;18.118;2022-12-24T01:23:09;99596.70;;;7.96;100.00
26711;BME280;18311;52.754;18.118;2022-12-24T01:25:39;99598.38;;;7.99;100.00
26711;BME280;18311;52.754;18.118;2022-12-24T01:28:10;99601.75;;;8.02;100.00
26711;BME280;18311;52.754;18.118;2022-12-24T01:30:42;99607.79;;;8.06;100.00
26711;BME280;18311;52.754;18.118;2022-12-24T01:33:14;99606.63;;;8.11;100.00
26711;BME280;18311;52.754;18.118;2022-12-24T01:35:46;99602.53;;;8.04;100.00
26711;BME280;18311;52.754;18.118;2022-12-24T01:38:17;99609.56;;;8.05;100.00
26711;BME280;18311;52.754;18.118;2022-12-24T01:40:47;99607.41;;;8.13;100.00
26711;BME280;18311;52.754;18.118;2022-12-24T01:43:36;99602.58;;;8.22;100.00
26711;BME280;18311;52.754;18.118;2022-12-24T01:48:48;99605.56;;;8.33;100.00
26711;BME280;18311;52.754;18.118;2022-12-24T01:51:51;99603.79;;;8.34;100.00
26711;BME280;18311;52.754;18.118;2022-12-24T01:54:15;99614.52;;;8.32;100.00
26711;BME280;18311;52.754;18.118;2022-12-24T01:56:56;99605.28;;;8.39;100.00
26711;BME280;18311;52.754;18.118;2022-12-24T01:59:22;99604.99;;;8.45;100.00
26711;BME280;18311;52.754;18.118;2022-12-24T02:01:54;99600.55;;;8.46;100.00
26711;BME280;18311;52.754;18.118;2022-12-24T02:07:16;99605.95;;;8.44;100.00
26711;BME280;18311;52.754;18.118;2022-12-24T02:09:48;99598.67;;;8.29;100.00
26711;BME280;18311;52.754;18.118;2022-12-24T02:12:19;99598.61;;;8.30;100.00
26711;BME280;18311;52.754;18.118;2022-12-24T02:14:51;99593.63;;;8.23;100.00
26711;BME280;18311;52.754;18.118;2022-12-24T02:31:48;99609.83;;;8.37;100.00
26711;BME280;18311;52.754;18.118;2022-12-24T02:34:27;99601.12;;;8.34;100.00
26711;BME280;18311;52.754;18.118;2022-12-24T02:37:02;99599.31;;;8.34;100.00
26711;BME280;18311;52.754;18.118;2022-12-24T02:39:52;99600.70;;;8.24;100.00
26711;BME280;18311;52.754;18.118;2022-12-24T02:42:28;99594.84;;;8.35;100.00
26711;BME280;18311;52.754;18.118;2022-12-24T02:45:16;99594.52;;;8.42;100.00
26711;BME280;18311;52.754;18.118;2022-12-24T02:47:47;99599.67;;;8.26;100.00
26711;BME280;18311;52.754;18.118;2022-12-24T02:50:19;99600.91;;;8.19;100.00
26711;BME280;18311;52.754;18.118;2022-12-24T02:52:50;99610.92;;;8.14;100.00
26711;BME280;18311;52.754;18.118;2022-12-24T03:01:04;99606.67;;;8.29;100.00
26711;BME280;18311;52.754;18.118;2022-12-24T03:04:28;99617.33;;;8.29;100.00
26711;BME280;18311;52.754;18.118;2022-12-24T03:06:22;99614.80;;;8.26;100.00
26711;BME280;18311;52.754;18.118;2022-12-24T03:09:18;99610.64;;;8.20;100.00
26711;BME280;18311;52.754;18.118;2022-12-24T03:11:26;99615.83;;;8.23;100.00
26711;BME280;18311;52.754;18.118;2022-12-24T03:13:59;99611.16;;;8.09;100.00
26711;BME280;18311;52.754;18.118;2022-12-24T03:16:31;99609.93;;;8.17;100.00
26711;BME280;18311;52.754;18.118;2022-12-24T03:19:03;99622.98;;;8.04;100.00
26711;BME280;18311;52.754;18.118;2022-12-24T03:21:35;99619.73;;;7.97;100.00
26711;BME280;18311;52.754;18.118;2022-12-24T03:24:08;99622.53;;;8.13;100.00
26711;BME280;18311;52.754;18.118;2022-12-24T03:26:41;99618.91;;;8.14;100.00
26711;BME280;18311;52.754;18.118;2022-12-24T03:29:13;99617.55;;;8.05;100.00
26711;BME280;18311;52.754;18.118;2022-12-24T03:31:46;99616.56;;;8.08;100.00
26711;BME280;18311;52.754;18.118;2022-12-24T03:34:18;99621.75;;;8.11;100.00
26711;BME280;18311;52.754;18.118;2022-12-24T03:36:49;99622.73;;;8.08;100.00
26711;BME280;18311;52.754;18.118;2022-12-24T03:39:20;99625.19;;;8.13;100.00
26711;BME280;18311;52.754;18.118;2022-12-24T03:41:52;99627.00;;;8.12;100.00
26711;BME280;18311;52.754;18.118;2022-12-24T03:44:23;99626.12;;;8.12;100.00
26711;BME280;18311;52.754;18.118;2022-12-24T03:46:53;99626.56;;;8.03;100.00
26711;BME280;18311;52.754;18.118;2022-12-24T03:49:24;99628.78;;;8.12;100.00
26711;BME280;18311;52.754;18.118;2022-12-24T03:51:54;99623.52;;;8.10;100.00
26711;BME280;18311;52.754;18.118;2022-12-24T03:54:26;99627.86;;;8.13;100.00
26711;BME280;18311;52.754;18.118;2022-12-24T03:56:57;99626.05;;;8.13;100.00
26711;BME280;18311;52.754;18.118;2022-12-24T03:59:27;99634.04;;;8.13;100.00
26711;BME280;18311;52.754;18.118;2022-12-24T04:01:59;99636.13;;;8.07;100.00
26711;BME280;18311;52.754;18.118;2022-12-24T04:04:30;99635.27;;;8.06;100.00
26711;BME280;18311;52.754;18.118;2022-12-24T04:07:04;99635.41;;;8.03;100.00
26711;BME280;18311;52.754;18.118;2022-12-24T04:09:36;99640.73;;;8.03;100.00
26711;BME280;18311;52.754;18.118;2022-12-24T04:12:07;99638.58;;;8.11;100.00
26711;BME280;18311;52.754;18.118;2022-12-24T04:14:38;99638.27;;;8.18;100.00
26711;BME280;18311;52.754;18.118;2022-12-24T04:17:09;99642.98;;;8.12;100.00
26711;BME280;18311;52.754;18.118;2022-12-24T04:19:39;99639.44;;;7.93;100.00
26711;BME280;18311;52.754;18.118;2022-12-24T04:22:11;99640.73;;;8.03;100.00
26711;BME280;18311;52.754;18.118;2022-12-24T04:24:42;99636.63;;;7.96;100.00
26711;BME280;18311;52.754;18.118;2022-12-24T04:27:13;99647.94;;;8.01;100.00
26711;BME280;18311;52.754;18.118;2022-12-24T04:29:44;99644.28;;;8.04;100.00
26711;BME280;18311;52.754;18.118;2022-12-24T04:32:15;99652.98;;;8.07;100.00
26711;BME280;18311;52.754;18.118;2022-12-24T04:34:45;99651.17;;;8.08;100.00
26711;BME280;18311;52.754;18.118;2022-12-24T04:37:16;99643.05;;;8.11;100.00
26711;BME280;18311;52.754;18.118;2022-12-24T04:39:47;99645.71;;;8.11;100.00
26711;BME280;18311;52.754;18.118;2022-12-24T04:42:19;99650.97;;;8.12;100.00
26711;BME280;18311;52.754;18.118;2022-12-24T04:44:49;99642.98;;;8.12;100.00
26711;BME280;18311;52.754;18.118;2022-12-24T04:47:21;99643.77;;;8.15;100.00
26711;BME280;18311;52.754;18.118;2022-12-24T04:49:52;99651.31;;;8.05;100.00
26711;BME280;18311;52.754;18.118;2022-12-24T04:52:24;99653.13;;;8.04;100.00
26711;BME280;18311;52.754;18.118;2022-12-24T04:54:55;99654.83;;;8.05;100.00
26711;BME280;18311;52.754;18.118;2022-12-24T04:57:30;99656.70;;;8.03;100.00
26711;BME280;18311;52.754;18.118;2022-12-24T05:00:03;99659.81;;;8.13;100.00
26711;BME280;18311;52.754;18.118;2022-12-24T05:02:34;99662.03;;;8.03;100.00
26711;BME280;18311;52.754;18.118;2022-12-24T05:05:06;99660.80;;;8.10;100.00
26711;BME280;18311;52.754;18.118;2022-12-24T05:07:37;99661.69;;;8.11;100.00
26711;BME280;18311;52.754;18.118;2022-12-24T05:10:09;99668.38;;;8.01;100.00
26711;BME280;18311;52.754;18.118;2022-12-24T05:12:41;99659.61;;;7.99;100.00
26711;BME280;18311;52.754;18.118;2022-12-24T05:15:11;99668.66;;;7.94;100.00
26711;BME280;18311;52.754;18.118;2022-12-24T05:17:42;99663.91;;;8.01;100.00
26711;BME280;18311;52.754;18.118;2022-12-24T05:20:13;99673.25;;;7.91;100.00
26711;BME280;18311;52.754;18.118;2022-12-24T05:22:44;99666.05;;;7.93;100.00
26711;BME280;18311;52.754;18.118;2022-12-24T05:25:37;99673.13;;;7.94;100.00
26711;BME280;18311;52.754;18.118;2022-12-24T05:28:26;99668.72;;;7.93;100.00
26711;BME280;18311;52.754;18.118;2022-12-24T05:30:57;99664.05;;;7.98;100.00
26711;BME280;18311;52.754;18.118;2022-12-24T05:33:29;99669.54;;;7.95;100.00
26711;BME280;18311;52.754;18.118;2022-12-24T05:36:00;99670.33;;;7.97;100.00
26711;BME280;18311;52.754;18.118;2022-12-24T05:38:32;99672.27;;;7.93;100.00
26711;BME280;18311;52.754;18.118;2022-12-24T05:41:04;99679.02;;;7.82;100.00
26711;BME280;18311;52.754;18.118;2022-12-24T05:43:37;99683.25;;;7.86;100.00
26711;BME280;18311;52.754;18.118;2022-12-24T05:46:10;99678.06;;;7.83;100.00
26711;BME280;18311;52.754;18.118;2022-12-24T05:48:42;99675.23;;;7.67;100.00
26711;BME280;18311;52.754;18.118;2022-12-24T05:51:15;99677.89;;;7.67;100.00
26711;BME280;18311;52.754;18.118;2022-12-24T05:53:49;99685.09;;;7.65;100.00
26711;BME280;18311;52.754;18.118;2022-12-24T05:56:22;99687.75;;;7.65;100.00
26711;BME280;18311;52.754;18.118;2022-12-24T05:58:54;99700.14;;;7.66;100.00
26711;BME280;18311;52.754;18.118;2022-12-24T06:01:27;99700.33;;;7.61;100.00
26711;BME280;18311;52.754;18.118;2022-12-24T06:03:58;99702.80;;;7.66;100.00
26711;BME280;18311;52.754;18.118;2022-12-24T06:06:35;99713.52;;;7.64;100.00
26711;BME280;18311;52.754;18.118;2022-12-24T06:09:06;99706.55;;;7.81;100.00
26711;BME280;18311;52.754;18.118;2022-12-24T06:11:37;99711.68;;;7.85;100.00
26711;BME280;18311;52.754;18.118;2022-12-24T06:14:08;99714.54;;;7.81;100.00
26711;BME280;18311;52.754;18.118;2022-12-24T06:16:39;99717.06;;;7.84;100.00
26711;BME280;18311;52.754;18.118;2022-12-24T06:19:11;99709.94;;;7.84;100.00
26711;BME280;18311;52.754;18.118;2022-12-24T06:21:42;99724.39;;;7.79;100.00
26711;BME280;18311;52.754;18.118;2022-12-24T06:24:13;99723.91;;;7.89;100.00
26711;BME280;18311;52.754;18.118;2022-12-24T06:26:45;99722.85;;;7.93;100.00
26711;BME280;18311;52.754;18.118;2022-12-24T06:29:16;99739.88;;;7.89;100.00
26711;BME280;18311;52.754;18.118;2022-12-24T06:31:48;99726.56;;;7.89;100.00
26711;BME280;18311;52.754;18.118;2022-12-24T06:34:19;99739.51;;;7.78;100.00
26711;BME280;18311;52.754;18.118;2022-12-24T06:36:50;99738.84;;;7.73;100.00
26711;BME280;18311;52.754;18.118;2022-12-24T06:39:21;99743.31;;;7.72;100.00
26711;BME280;18311;52.754;18.118;2022-12-24T06:41:52;99744.30;;;7.70;100.00
26711;BME280;18311;52.754;18.118;2022-12-24T06:44:23;99748.48;;;7.75;100.00
26711;BME280;18311;52.754;18.118;2022-12-24T06:46:54;99742.72;;;7.66;100.00
26711;BME280;18311;52.754;18.118;2022-12-24T06:49:26;99750.89;;;7.61;100.00
26711;BME280;18311;52.754;18.118;2022-12-24T06:51:58;99755.23;;;7.64;100.00
26711;BME280;18311;52.754;18.118;2022-12-24T06:54:30;99759.28;;;7.72;100.00
26711;BME280;18311;52.754;18.118;2022-12-24T06:57:02;99770.91;;;7.70;100.00
26711;BME280;18311;52.754;18.118;2022-12-24T06:59:33;99776.23;;;7.70;100.00
26711;BME280;18311;52.754;18.118;2022-12-24T07:02:04;99776.97;;;7.73;100.00
26711;BME280;18311;52.754;18.118;2022-12-24T07:04:37;99783.91;;;7.78;100.00
26711;BME280;18311;52.754;18.118;2022-12-24T07:07:09;99790.40;;;7.70;100.00
26711;BME280;18311;52.754;18.118;2022-12-24T07:09:41;99792.80;;;7.77;100.00
26711;BME280;18311;52.754;18.118;2022-12-24T07:12:12;99792.94;;;7.73;100.00
26711;BME280;18311;52.754;18.118;2022-12-24T07:14:42;99806.11;;;7.77;100.00
26711;BME280;18311;52.754;18.118;2022-12-24T07:17:13;99805.20;;;7.78;100.00
26711;BME280;18311;52.754;18.118;2022-12-24T07:19:45;99801.20;;;7.67;100.00
26711;BME280;18311;52.754;18.118;2022-12-24T07:22:16;99803.45;;;7.77;100.00
26711;BME280;18311;52.754;18.118;2022-12-24T07:24:47;99810.52;;;7.78;100.00
26711;BME280;18311;52.754;18.118;2022-12-24T07:27:17;99824.63;;;7.80;100.00
26711;BME280;18311;52.754;18.118;2022-12-24T07:29:48;99823.08;;;7.53;100.00
26711;BME280;18311;52.754;18.118;2022-12-24T07:32:20;99819.53;;;7.53;100.00
26711;BME280;18311;52.754;18.118;2022-12-24T07:34:52;99831.97;;;7.52;100.00
26711;BME280;18311;52.754;18.118;2022-12-24T07:37:23;99823.20;;;7.50;100.00
26711;BME280;18311;52.754;18.118;2022-12-24T07:39:55;99827.20;;;7.61;100.00
26711;BME280;18311;52.754;18.118;2022-12-24T07:42:26;99839.50;;;7.63;100.00
26711;BME280;18311;52.754;18.118;2022-12-24T07:44:57;99844.52;;;7.71;100.00
26711;BME280;18311;52.754;18.118;2022-12-24T07:47:28;99842.44;;;7.57;100.00
26711;BME280;18311;52.754;18.118;2022-12-24T07:49:58;99845.46;;;7.48;100.00
26711;BME280;18311;52.754;18.118;2022-12-24T07:52:29;99840.91;;;7.51;100.00
26711;BME280;18311;52.754;18.118;2022-12-24T07:55:00;99846.88;;;7.56;100.00
26711;BME280;18311;52.754;18.118;2022-12-24T07:57:31;99852.95;;;7.60;100.00
26711;BME280;18311;52.754;18.118;2022-12-24T08:00:01;99861.24;;;7.52;100.00
26711;BME280;18311;52.754;18.118;2022-12-24T08:02:33;99869.11;;;7.55;100.00
26711;BME280;18311;52.754;18.118;2022-12-24T08:05:07;99873.88;;;7.47;100.00
26711;BME280;18311;52.754;18.118;2022-12-24T08:07:39;99878.95;;;7.53;100.00
26711;BME280;18311;52.754;18.118;2022-12-24T08:10:10;99890.78;;;7.46;100.00
26711;BME280;18311;52.754;18.118;2022-12-24T08:12:40;99883.27;;;7.56;100.00
26711;BME280;18311;52.754;18.118;2022-12-24T08:15:11;99889.08;;;7.66;100.00
26711;BME280;18311;52.754;18.118;2022-12-24T08:17:42;99897.13;;;7.64;100.00
26711;BME280;18311;52.754;18.118;2022-12-24T08:20:16;99899.32;;;7.32;100.00
26711;BME280;18311;52.754;18.118;2022-12-24T08:22:47;99900.41;;;7.49;100.00
26711;BME280;18311;52.754;18.118;2022-12-24T08:25:18;99902.10;;;7.51;100.00
26711;BME280;18311;52.754;18.118;2022-12-24T08:27:50;99900.92;;;7.59;100.00
26711;BME280;18311;52.754;18.118;2022-12-24T08:30:21;99913.09;;;7.64;100.00
26711;BME280;18311;52.754;18.118;2022-12-24T08:32:53;99917.91;;;7.77;100.00
26711;BME280;18311;52.754;18.118;2022-12-24T08:35:23;99921.64;;;7.72;100.00
26711;BME280;18311;52.754;18.118;2022-12-24T08:37:54;99933.94;;;7.75;100.00
26711;BME280;18311;52.754;18.118;2022-12-24T08:40:25;99928.62;;;7.53;100.00
26711;BME280;18311;52.754;18.118;2022-12-24T08:42:56;99937.61;;;7.72;100.00
26711;BME280;18311;52.754;18.118;2022-12-24T08:45:26;99925.62;;;7.83;100.00
26711;BME280;18311;52.754;18.118;2022-12-24T08:48:00;99935.68;;;7.76;100.00
26711;BME280;18311;52.754;18.118;2022-12-24T08:50:32;99934.22;;;7.89;100.00
26711;BME280;18311;52.754;18.118;2022-12-24T08:53:03;99934.95;;;7.93;100.00
26711;BME280;18311;52.754;18.118;2022-12-24T08:55:33;99939.08;;;7.80;100.00
26711;BME280;18311;52.754;18.118;2022-12-24T08:58:06;99941.90;;;7.97;100.00
26711;BME280;18311;52.754;18.118;2022-12-24T09:00:37;99934.70;;;7.99;100.00
26711;BME280;18311;52.754;18.118;2022-12-24T09:03:12;99940.70;;;8.04;100.00
26711;BME280;18311;52.754;18.118;2022-12-24T09:05:44;99947.28;;;7.96;100.00
26711;BME280;18311;52.754;18.118;2022-12-24T09:08:14;99950.56;;;8.02;100.00
26711;BME280;18311;52.754;18.118;2022-12-24T09:10:45;99951.97;;;8.11;100.00
26711;BME280;18311;52.754;18.118;2022-12-24T09:13:17;99952.95;;;8.08;100.00
26711;BME280;18311;52.754;18.118;2022-12-24T09:15:54;99957.94;;;7.96;100.00
26711;BME280;18311;52.754;18.118;2022-12-24T09:18:26;99949.55;;;8.05;100.00
26711;BME280;18311;52.754;18.118;2022-12-24T09:20:59;99959.41;;;8.03;100.00
26711;BME280;18311;52.754;18.118;2022-12-24T09:23:33;99960.75;;;8.13;100.00
26711;BME280;18311;52.754;18.118;2022-12-24T09:26:18;99967.22;;;8.07;100.00
26711;BME280;18311;52.754;18.118;2022-12-24T09:28:49;99966.14;;;8.11;100.00
26711;BME280;18311;52.754;18.118;2022-12-24T09:31:21;99957.30;;;8.11;100.00
26711;BME280;18311;52.754;18.118;2022-12-24T09:33:53;99961.48;;;8.17;100.00
26711;BME280;18311;52.754;18.118;2022-12-24T09:36:24;99968.75;;;8.13;100.00
26711;BME280;18311;52.754;18.118;2022-12-24T09:38:57;99975.41;;;8.23;100.00
26711;BME280;18311;52.754;18.118;2022-12-24T09:46:56;99977.67;;;8.32;100.00
26711;BME280;18311;52.754;18.118;2022-12-24T09:49:41;99975.80;;;8.35;100.00
26711;BME280;18311;52.754;18.118;2022-12-24T09:52:20;99976.38;;;8.43;100.00
26711;BME280;18311;52.754;18.118;2022-12-24T09:54:52;99976.92;;;8.51;100.00
26711;BME280;18311;52.754;18.118;2022-12-24T09:57:27;99978.92;;;8.46;100.00
26711;BME280;18311;52.754;18.118;2022-12-24T09:59:58;99978.57;;;8.54;100.00
26711;BME280;18311;52.754;18.118;2022-12-24T10:02:30;99985.89;;;8.69;100.00
26711;BME280;18311;52.754;18.118;2022-12-24T10:05:02;99983.89;;;8.74;100.00
26711;BME280;18311;52.754;18.118;2022-12-24T10:07:46;99994.27;;;8.80;100.00
26711;BME280;18311;52.754;18.118;2022-12-24T10:13:15;100001.53;;;8.77;100.00
26711;BME280;18311;52.754;18.118;2022-12-24T10:16:21;100000.68;;;8.76;100.00
26711;BME280;18311;52.754;18.118;2022-12-24T10:21:12;100015.93;;;8.93;100.00
26711;BME280;18311;52.754;18.118;2022-12-24T10:23:52;100013.87;;;8.79;100.00
26711;BME280;18311;52.754;18.118;2022-12-24T10:29:13;100028.73;;;8.85;100.00
26711;BME280;18311;52.754;18.118;2022-12-24T10:31:52;100023.46;;;8.83;100.00
26711;BME280;18311;52.754;18.118;2022-12-24T10:34:27;100039.15;;;9.10;100.00
26711;BME280;18311;52.754;18.118;2022-12-24T10:36:59;100042.30;;;9.39;100.00
26711;BME280;18311;52.754;18.118;2022-12-24T10:39:33;100051.66;;;9.29;100.00
26711;BME280;18311;52.754;18.118;2022-12-24T10:42:05;100059.17;;;9.39;100.00
26711;BME280;18311;52.754;18.118;2022-12-24T10:44:36;100057.60;;;9.54;100.00
26711;BME280;18311;52.754;18.118;2022-12-24T10:47:09;100061.27;;;9.52;100.00
26711;BME280;18311;52.754;18.118;2022-12-24T10:52:39;100066.75;;;9.30;100.00
26711;BME280;18311;52.754;18.118;2022-12-24T10:58:03;100062.36;;;9.48;100.00
26711;BME280;18311;52.754;18.118;2022-12-24T11:00:34;100068.76;;;9.24;100.00
26711;BME280;18311;52.754;18.118;2022-12-24T11:06:05;100072.44;;;9.01;100.00
26711;BME280;18311;52.754;18.118;2022-12-24T11:08:42;100074.18;;;9.02;100.00
26711;BME280;18311;52.754;18.118;2022-12-24T11:11:18;100078.66;;;9.02;100.00
26711;BME280;18311;52.754;18.118;2022-12-24T11:13:54;100082.73;;;8.90;100.00
26711;BME280;18311;52.754;18.118;2022-12-24T11:16:31;100092.44;;;8.91;100.00
26711;BME280;18311;52.754;18.118;2022-12-24T11:19:05;100084.66;;;8.86;100.00
26711;BME280;18311;52.754;18.118;2022-12-24T11:21:39;100088.05;;;8.69;100.00
26711;BME280;18311;52.754;18.118;2022-12-24T11:24:20;100092.60;;;8.88;100.00
26711;BME280;18311;52.754;18.118;2022-12-24T11:26:48;100091.99;;;8.81;100.00
26711;BME280;18311;52.754;18.118;2022-12-24T11:29:21;100101.45;;;8.88;100.00
26711;BME280;18311;52.754;18.118;2022-12-24T11:32:09;100099.70;;;8.87;100.00
26711;BME280;18311;52.754;18.118;2022-12-24T11:34:31;100106.83;;;8.46;100.00
26711;BME280;18311;52.754;18.118;2022-12-24T11:39:48;100119.12;;;8.71;100.00
26711;BME280;18311;52.754;18.118;2022-12-24T11:42:29;100115.91;;;8.62;100.00
26711;BME280;18311;52.754;18.118;2022-12-24T11:45:03;100116.52;;;8.69;100.00
26711;BME280;18311;52.754;18.118;2022-12-24T11:47:37;100111.80;;;8.76;100.00
26711;BME280;18311;52.754;18.118;2022-12-24T11:50:33;100132.57;;;8.67;100.00
26711;BME280;18311;52.754;18.118;2022-12-24T11:53:18;100129.66;;;8.74;100.00
26711;BME280;18311;52.754;18.118;2022-12-24T11:55:52;100131.71;;;8.67;100.00
26711;BME280;18311;52.754;18.118;2022-12-24T12:01:30;100142.10;;;8.73;100.00
26711;BME280;18311;52.754;18.118;2022-12-24T12:04:05;100145.72;;;8.72;100.00
26711;BME280;18311;52.754;18.118;2022-12-24T12:06:58;100139.13;;;8.81;100.00
26711;BME280;18311;52.754;18.118;2022-12-24T12:09:30;100148.45;;;8.71;100.00
26711;BME280;18311;52.754;18.118;2022-12-24T12:12:06;100143.84;;;8.74;100.00
26711;BME280;18311;52.754;18.118;2022-12-24T12:15:28;100150.66;;;8.81;100.00
26711;BME280;18311;52.754;18.118;2022-12-24T12:20:17;100142.39;;;9.08;100.00
26711;BME280;18311;52.754;18.118;2022-12-24T12:26:32;100153.23;;;9.44;100.00
26711;BME280;18311;52.754;18.118;2022-12-24T12:28:27;100162.39;;;9.18;100.00
26711;BME280;18311;52.754;18.118;2022-12-24T12:31:09;100159.80;;;9.17;100.00
26711;BME280;18311;52.754;18.118;2022-12-24T12:33:48;100170.94;;;9.26;100.00
26711;BME280;18311;52.754;18.118;2022-12-24T12:36:36;100173.80;;;9.22;100.00
26711;BME280;18311;52.754;18.118;2022-12-24T12:38:56;100172.59;;;9.29;100.00
26711;BME280;18311;52.754;18.118;2022-12-24T12:44:36;100171.92;;;9.44;100.00
26711;BME280;18311;52.754;18.118;2022-12-24T12:58:40;100173.91;;;9.60;100.00
26711;BME280;18311;52.754;18.118;2022-12-24T13:01:22;100172.65;;;9.48;100.00
26711;BME280;18311;52.754;18.118;2022-12-24T13:04:17;100182.88;;;9.38;100.00
26711;BME280;18311;52.754;18.118;2022-12-24T13:12:39;100199.14;;;9.12;100.00
26711;BME280;18311;52.754;18.118;2022-12-24T13:15:32;100204.08;;;9.00;100.00
26711;BME280;18311;52.754;18.118;2022-12-24T13:20:48;100206.31;;;8.89;100.00
26711;BME280;18311;52.754;18.118;2022-12-24T13:23:21;100208.69;;;8.75;100.00
26711;BME280;18311;52.754;18.118;2022-12-24T13:25:55;100215.27;;;8.66;100.00
26711;BME280;18311;52.754;18.118;2022-12-24T13:28:31;100214.34;;;8.45;100.00
26711;BME280;18311;52.754;18.118;2022-12-24T13:36:12;100222.41;;;8.42;100.00
26711;BME280;18311;52.754;18.118;2022-12-24T13:38:53;100227.25;;;8.32;100.00
26711;BME280;18311;52.754;18.118;2022-12-24T13:44:15;100235.25;;;8.32;100.00
26711;BME280;18311;52.754;18.118;2022-12-24T13:47:15;100235.53;;;8.24;100.00
26711;BME280;18311;52.754;18.118;2022-12-24T13:49:52;100243.72;;;8.20;100.00
26711;BME280;18311;52.754;18.118;2022-12-24T13:52:25;100240.36;;;8.15;100.00
26711;BME280;18311;52.754;18.118;2022-12-24T13:54:59;100247.30;;;8.19;100.00
26711;BME280;18311;52.754;18.118;2022-12-24T13:57:36;100247.41;;;8.16;100.00
26711;BME280;18311;52.754;18.118;2022-12-24T14:02:49;100259.03;;;7.89;100.00
26711;BME280;18311;52.754;18.118;2022-12-24T14:08:13;100262.69;;;8.10;100.00
26711;BME280;18311;52.754;18.118;2022-12-24T14:10:55;100268.61;;;8.19;100.00
26711;BME280;18311;52.754;18.118;2022-12-24T14:16:29;100276.76;;;8.14;100.00
26711;BME280;18311;52.754;18.118;2022-12-24T14:19:03;100278.22;;;7.99;100.00
26711;BME280;18311;52.754;18.118;2022-12-24T14:24:36;100283.48;;;8.01;100.00
26711;BME280;18311;52.754;18.118;2022-12-24T14:30:03;100293.98;;;7.80;100.00
26711;BME280;18311;52.754;18.118;2022-12-24T14:32:36;100305.00;;;7.94;100.00
26711;BME280;18311;52.754;18.118;2022-12-24T14:38:03;100306.92;;;7.66;100.00
26711;BME280;18311;52.754;18.118;2022-12-24T14:40:20;100315.06;;;7.61;100.00
26711;BME280;18311;52.754;18.118;2022-12-24T14:48:44;100322.23;;;7.59;100.00
26711;BME280;18311;52.754;18.118;2022-12-24T14:51:21;100331.13;;;7.58;100.00
26711;BME280;18311;52.754;18.118;2022-12-24T14:54:12;100332.21;;;7.52;100.00
26711;BME280;18311;52.754;18.118;2022-12-24T14:56:41;100335.64;;;7.56;100.00
26711;BME280;18311;52.754;18.118;2022-12-24T14:59:18;100341.52;;;7.66;100.00
26711;BME280;18311;52.754;18.118;2022-12-24T15:01:49;100336.97;;;7.69;100.00
26711;BME280;18311;52.754;18.118;2022-12-24T15:04:20;100343.30;;;7.65;100.00
26711;BME280;18311;52.754;18.118;2022-12-24T15:06:52;100363.11;;;7.56;100.00
26711;BME280;18311;52.754;18.118;2022-12-24T15:09:28;100363.06;;;7.58;100.00
26711;BME280;18311;52.754;18.118;2022-12-24T15:12:00;100360.06;;;7.69;100.00
26711;BME280;18311;52.754;18.118;2022-12-24T15:14:42;100354.17;;;7.59;100.00